sensor_id;sensor_type;location;lat;lon;timestamp;P1;durP1;ratioP1;P2;durP2;ratioP2
12665;SDS011;58531;59.050;17.416;2022-09-01T00:00:03;2.10;;;1.53;;
12665;SDS011;58531;59.050;17.416;2022-09-01T00:02:33;3.63;;;1.70;;
12665;SDS011;58531;59.050;17.416;2022-09-01T00:04:59;2.73;;;1.60;;
12665;SDS011;58531;59.050;17.416;2022-09-01T00:07:28;3.03;;;1.80;;
12665;SDS011;58531;59.050;17.416;2022-09-01T00:09:57;2.47;;;1.80;;
12665;SDS011;58531;59.050;17.416;2022-09-01T00:12:24;2.97;;;1.83;;
12665;SDS011;58531;59.050;17.416;2022-09-01T00:14:52;1.93;;;1.83;;
12665;SDS011;58531;59.050;17.416;2022-09-01T00:17:19;2.00;;;1.67;;
12665;SDS011;58531;59.050;17.416;2022-09-01T00:19:46;2.23;;;1.93;;
12665;SDS011;58531;59.050;17.416;2022-09-01T00:22:13;2.53;;;1.80;;
12665;SDS011;58531;59.050;17.416;2022-09-01T00:24:40;2.43;;;1.73;;
12665;SDS011;58531;59.050;17.416;2022-09-01T00:27:08;3.23;;;1.97;;
12665;SDS011;58531;59.050;17.416;2022-09-01T00:29:35;2.40;;;1.77;;
12665;SDS011;58531;59.050;17.416;2022-09-01T00:32:02;4.30;;;2.03;;
12665;SDS011;58531;59.050;17.416;2022-09-01T00:34:29;3.70;;;1.93;;
12665;SDS011;58531;59.050;17.416;2022-09-01T00:36:56;2.97;;;1.77;;
12665;SDS011;58531;59.050;17.416;2022-09-01T00:39:23;2.37;;;1.73;;
12665;SDS011;58531;59.050;17.416;2022-09-01T00:41:49;5.53;;;2.00;;
12665;SDS011;58531;59.050;17.416;2022-09-01T00:44:19;2.73;;;1.70;;
12665;SDS011;58531;59.050;17.416;2022-09-01T00:46:51;4.37;;;2.10;;
12665;SDS011;58531;59.050;17.416;2022-09-01T00:49:21;4.20;;;2.20;;
12665;SDS011;58531;59.050;17.416;2022-09-01T00:51:54;2.73;;;1.90;;
12665;SDS011;58531;59.050;17.416;2022-09-01T00:54:25;2.63;;;2.03;;
12665;SDS011;58531;59.050;17.416;2022-09-01T00:56:54;3.07;;;2.10;;
12665;SDS011;58531;59.050;17.416;2022-09-01T00:59:23;2.23;;;1.77;;
12665;SDS011;58531;59.050;17.416;2022-09-01T01:01:53;2.67;;;1.80;;
12665;SDS011;58531;59.050;17.416;2022-09-01T01:04:21;2.47;;;1.97;;
12665;SDS011;58531;59.050;17.416;2022-09-01T01:06:50;3.17;;;2.07;;
12665;SDS011;58531;59.050;17.416;2022-09-01T01:09:26;4.57;;;2.20;;
12665;SDS011;58531;59.050;17.416;2022-09-01T01:11:56;2.40;;;1.90;;
12665;SDS011;58531;59.050;17.416;2022-09-01T01:14:26;1.97;;;1.53;;
12665;SDS011;58531;59.050;17.416;2022-09-01T01:16:57;2.33;;;1.70;;
12665;SDS011;58531;59.050;17.416;2022-09-01T01:19:36;2.40;;;1.87;;
12665;SDS011;58531;59.050;17.416;2022-09-01T01:22:30;3.23;;;1.70;;
12665;SDS011;58531;59.050;17.416;2022-09-01T01:25:23;2.60;;;1.93;;
12665;SDS011;58531;59.050;17.416;2022-09-01T01:27:50;2.73;;;1.90;;
12665;SDS011;58531;59.050;17.416;2022-09-01T01:30:19;2.47;;;1.73;;
12665;SDS011;58531;59.050;17.416;2022-09-01T01:32:47;3.37;;;1.87;;
12665;SDS011;58531;59.050;17.416;2022-09-01T01:35:16;2.50;;;1.80;;
12665;SDS011;58531;59.050;17.416;2022-09-01T01:37:47;2.27;;;1.70;;
12665;SDS011;58531;59.050;17.416;2022-09-01T01:40:17;2.57;;;1.40;;
12665;SDS011;58531;59.050;17.416;2022-09-01T01:42:48;2.50;;;1.70;;
12665;SDS011;58531;59.050;17.416;2022-09-01T01:45:18;2.50;;;1.67;;
12665;SDS011;58531;59.050;17.416;2022-09-01T01:47:48;2.53;;;1.70;;
12665;SDS011;58531;59.050;17.416;2022-09-01T01:50:17;2.90;;;1.60;;
12665;SDS011;58531;59.050;17.416;2022-09-01T01:52:44;2.73;;;1.80;;
12665;SDS011;58531;59.050;17.416;2022-09-01T01:55:11;2.53;;;1.70;;
12665;SDS011;58531;59.050;17.416;2022-09-01T01:57:43;3.30;;;1.83;;
12665;SDS011;58531;59.050;17.416;2022-09-01T02:00:15;2.83;;;1.60;;
12665;SDS011;58531;59.050;17.416;2022-09-01T02:02:45;2.67;;;1.80;;
12665;SDS011;58531;59.050;17.416;2022-09-01T02:05:17;3.00;;;1.83;;
12665;SDS011;58531;59.050;17.416;2022-09-01T02:07:46;2.40;;;1.90;;
12665;SDS011;58531;59.050;17.416;2022-09-01T02:10:13;3.83;;;1.87;;
12665;SDS011;58531;59.050;17.416;2022-09-01T02:12:40;2.87;;;1.77;;
12665;SDS011;58531;59.050;17.416;2022-09-01T02:15:07;4.07;;;2.47;;
12665;SDS011;58531;59.050;17.416;2022-09-01T02:17:37;2.70;;;2.00;;
12665;SDS011;58531;59.050;17.416;2022-09-01T02:20:04;2.37;;;1.80;;
12665;SDS011;58531;59.050;17.416;2022-09-01T02:22:34;2.83;;;2.20;;
12665;SDS011;58531;59.050;17.416;2022-09-01T02:25:03;4.00;;;2.30;;
12665;SDS011;58531;59.050;17.416;2022-09-01T02:27:31;2.50;;;1.90;;
12665;SDS011;58531;59.050;17.416;2022-09-01T02:30:01;2.83;;;1.97;;
12665;SDS011;58531;59.050;17.416;2022-09-01T02:32:31;3.83;;;2.10;;
12665;SDS011;58531;59.050;17.416;2022-09-01T02:34:59;2.93;;;2.30;;
12665;SDS011;58531;59.050;17.416;2022-09-01T02:37:25;3.13;;;2.00;;
12665;SDS011;58531;59.050;17.416;2022-09-01T02:39:53;4.00;;;2.10;;
12665;SDS011;58531;59.050;17.416;2022-09-01T02:42:21;5.03;;;2.07;;
12665;SDS011;58531;59.050;17.416;2022-09-01T02:44:52;3.93;;;2.37;;
12665;SDS011;58531;59.050;17.416;2022-09-01T02:47:20;3.20;;;2.40;;
12665;SDS011;58531;59.050;17.416;2022-09-01T02:49:47;2.73;;;2.13;;
12665;SDS011;58531;59.050;17.416;2022-09-01T02:52:16;4.00;;;2.23;;
12665;SDS011;58531;59.050;17.416;2022-09-01T02:54:45;2.87;;;2.20;;
12665;SDS011;58531;59.050;17.416;2022-09-01T02:57:14;3.23;;;2.03;;
12665;SDS011;58531;59.050;17.416;2022-09-01T02:59:41;2.93;;;2.27;;
12665;SDS011;58531;59.050;17.416;2022-09-01T03:02:11;3.17;;;2.10;;
12665;SDS011;58531;59.050;17.416;2022-09-01T03:04:38;2.40;;;1.93;;
12665;SDS011;58531;59.050;17.416;2022-09-01T03:07:05;2.83;;;2.20;;
12665;SDS011;58531;59.050;17.416;2022-09-01T03:09:34;2.73;;;2.07;;
12665;SDS011;58531;59.050;17.416;2022-09-01T03:12:01;4.80;;;2.07;;
12665;SDS011;58531;59.050;17.416;2022-09-01T03:14:31;3.50;;;1.93;;
12665;SDS011;58531;59.050;17.416;2022-09-01T03:16:57;2.50;;;2.20;;
12665;SDS011;58531;59.050;17.416;2022-09-01T03:19:24;4.23;;;2.20;;
12665;SDS011;58531;59.050;17.416;2022-09-01T03:21:51;2.43;;;1.90;;
12665;SDS011;58531;59.050;17.416;2022-09-01T03:24:18;3.23;;;2.17;;
12665;SDS011;58531;59.050;17.416;2022-09-01T03:26:49;3.13;;;2.20;;
12665;SDS011;58531;59.050;17.416;2022-09-01T03:29:16;2.93;;;2.20;;
12665;SDS011;58531;59.050;17.416;2022-09-01T03:31:43;3.20;;;2.40;;
12665;SDS011;58531;59.050;17.416;2022-09-01T03:34:10;3.37;;;2.30;;
12665;SDS011;58531;59.050;17.416;2022-09-01T03:36:37;4.07;;;2.40;;
12665;SDS011;58531;59.050;17.416;2022-09-01T03:39:03;4.20;;;2.10;;
12665;SDS011;58531;59.050;17.416;2022-09-01T03:41:31;3.00;;;2.10;;
12665;SDS011;58531;59.050;17.416;2022-09-01T03:43:59;3.23;;;2.37;;
12665;SDS011;58531;59.050;17.416;2022-09-01T03:46:26;2.97;;;2.20;;
12665;SDS011;58531;59.050;17.416;2022-09-01T03:48:56;4.67;;;2.10;;
12665;SDS011;58531;59.050;17.416;2022-09-01T03:51:26;3.07;;;2.10;;
12665;SDS011;58531;59.050;17.416;2022-09-01T03:53:55;3.43;;;2.10;;
12665;SDS011;58531;59.050;17.416;2022-09-01T03:56:24;3.00;;;2.17;;
12665;SDS011;58531;59.050;17.416;2022-09-01T03:58:52;3.90;;;2.30;;
12665;SDS011;58531;59.050;17.416;2022-09-01T04:01:22;3.17;;;2.47;;
12665;SDS011;58531;59.050;17.416;2022-09-01T04:03:49;3.37;;;2.20;;
12665;SDS011;58531;59.050;17.416;2022-09-01T04:06:17;4.13;;;2.50;;
12665;SDS011;58531;59.050;17.416;2022-09-01T04:08:48;2.90;;;2.23;;
12665;SDS011;58531;59.050;17.416;2022-09-01T04:11:17;2.60;;;2.10;;
12665;SDS011;58531;59.050;17.416;2022-09-01T04:13:48;4.33;;;2.10;;
12665;SDS011;58531;59.050;17.416;2022-09-01T04:16:16;5.40;;;2.23;;
12665;SDS011;58531;59.050;17.416;2022-09-01T04:19:00;4.73;;;2.20;;
12665;SDS011;58531;59.050;17.416;2022-09-01T04:21:33;2.87;;;2.10;;
12665;SDS011;58531;59.050;17.416;2022-09-01T04:24:00;3.80;;;2.17;;
12665;SDS011;58531;59.050;17.416;2022-09-01T04:26:29;2.83;;;2.17;;
12665;SDS011;58531;59.050;17.416;2022-09-01T04:28:57;3.57;;;2.27;;
12665;SDS011;58531;59.050;17.416;2022-09-01T04:31:25;3.63;;;2.50;;
12665;SDS011;58531;59.050;17.416;2022-09-01T04:33:51;2.23;;;2.03;;
12665;SDS011;58531;59.050;17.416;2022-09-01T04:36:21;3.70;;;2.60;;
12665;SDS011;58531;59.050;17.416;2022-09-01T04:38:52;3.87;;;2.27;;
12665;SDS011;58531;59.050;17.416;2022-09-01T04:41:20;4.13;;;2.70;;
12665;SDS011;58531;59.050;17.416;2022-09-01T04:43:50;3.87;;;2.40;;
12665;SDS011;58531;59.050;17.416;2022-09-01T04:46:20;3.27;;;2.67;;
12665;SDS011;58531;59.050;17.416;2022-09-01T04:48:50;4.80;;;2.70;;
12665;SDS011;58531;59.050;17.416;2022-09-01T04:51:18;4.23;;;2.57;;
12665;SDS011;58531;59.050;17.416;2022-09-01T04:53:48;5.00;;;2.67;;
12665;SDS011;58531;59.050;17.416;2022-09-01T04:56:15;4.03;;;2.63;;
12665;SDS011;58531;59.050;17.416;2022-09-01T04:58:43;4.10;;;2.77;;
12665;SDS011;58531;59.050;17.416;2022-09-01T05:01:20;4.10;;;2.83;;
12665;SDS011;58531;59.050;17.416;2022-09-01T05:03:49;3.73;;;2.27;;
12665;SDS011;58531;59.050;17.416;2022-09-01T05:06:27;3.67;;;2.47;;
12665;SDS011;58531;59.050;17.416;2022-09-01T05:08:58;3.27;;;2.47;;
12665;SDS011;58531;59.050;17.416;2022-09-01T05:11:25;3.53;;;2.10;;
12665;SDS011;58531;59.050;17.416;2022-09-01T05:13:52;34.53;;;6.63;;
12665;SDS011;58531;59.050;17.416;2022-09-01T05:16:21;146.07;;;18.07;;
12665;SDS011;58531;59.050;17.416;2022-09-01T05:18:50;7.97;;;3.10;;
12665;SDS011;58531;59.050;17.416;2022-09-01T05:21:19;4.77;;;1.80;;
12665;SDS011;58531;59.050;17.416;2022-09-01T05:23:51;1.57;;;1.00;;
12665;SDS011;58531;59.050;17.416;2022-09-01T05:26:21;1.97;;;1.03;;
12665;SDS011;58531;59.050;17.416;2022-09-01T05:28:50;1.10;;;1.00;;
12665;SDS011;58531;59.050;17.416;2022-09-01T05:31:19;0.80;;;0.80;;
12665;SDS011;58531;59.050;17.416;2022-09-01T05:33:46;1.70;;;0.83;;
12665;SDS011;58531;59.050;17.416;2022-09-01T05:36:15;1.00;;;0.60;;
12665;SDS011;58531;59.050;17.416;2022-09-01T05:38:44;1.53;;;0.70;;
12665;SDS011;58531;59.050;17.416;2022-09-01T05:41:13;1.17;;;0.67;;
12665;SDS011;58531;59.050;17.416;2022-09-01T05:43:41;1.00;;;0.70;;
12665;SDS011;58531;59.050;17.416;2022-09-01T05:46:14;1.30;;;0.60;;
12665;SDS011;58531;59.050;17.416;2022-09-01T05:48:43;1.20;;;0.60;;
12665;SDS011;58531;59.050;17.416;2022-09-01T05:51:13;0.80;;;0.70;;
12665;SDS011;58531;59.050;17.416;2022-09-01T05:53:42;1.03;;;0.63;;
12665;SDS011;58531;59.050;17.416;2022-09-01T05:56:10;0.60;;;0.60;;
12665;SDS011;58531;59.050;17.416;2022-09-01T05:58:42;0.60;;;0.60;;
12665;SDS011;58531;59.050;17.416;2022-09-01T06:01:14;0.60;;;0.60;;
12665;SDS011;58531;59.050;17.416;2022-09-01T06:03:46;0.80;;;0.70;;
12665;SDS011;58531;59.050;17.416;2022-09-01T06:06:13;1.00;;;0.80;;
12665;SDS011;58531;59.050;17.416;2022-09-01T06:08:40;0.80;;;0.80;;
12665;SDS011;58531;59.050;17.416;2022-09-01T06:11:12;0.83;;;0.70;;
12665;SDS011;58531;59.050;17.416;2022-09-01T06:13:42;1.80;;;0.80;;
12665;SDS011;58531;59.050;17.416;2022-09-01T06:16:11;1.93;;;0.70;;
12665;SDS011;58531;59.050;17.416;2022-09-01T06:18:41;2.83;;;0.83;;
12665;SDS011;58531;59.050;17.416;2022-09-01T06:21:08;0.83;;;0.80;;
12665;SDS011;58531;59.050;17.416;2022-09-01T06:23:39;0.63;;;0.63;;
12665;SDS011;58531;59.050;17.416;2022-09-01T06:26:06;0.83;;;0.83;;
12665;SDS011;58531;59.050;17.416;2022-09-01T06:28:42;0.73;;;0.73;;
12665;SDS011;58531;59.050;17.416;2022-09-01T06:31:13;0.60;;;0.60;;
12665;SDS011;58531;59.050;17.416;2022-09-01T06:33:41;0.87;;;0.70;;
12665;SDS011;58531;59.050;17.416;2022-09-01T06:36:09;1.17;;;0.70;;
12665;SDS011;58531;59.050;17.416;2022-09-01T06:38:36;0.87;;;0.60;;
12665;SDS011;58531;59.050;17.416;2022-09-01T06:41:04;0.70;;;0.70;;
12665;SDS011;58531;59.050;17.416;2022-09-01T06:43:37;0.73;;;0.60;;
12665;SDS011;58531;59.050;17.416;2022-09-01T06:46:06;1.63;;;0.70;;
12665;SDS011;58531;59.050;17.416;2022-09-01T06:48:35;0.70;;;0.60;;
12665;SDS011;58531;59.050;17.416;2022-09-01T06:51:03;0.67;;;0.57;;
12665;SDS011;58531;59.050;17.416;2022-09-01T06:53:33;0.60;;;0.60;;
12665;SDS011;58531;59.050;17.416;2022-09-01T06:56:00;0.73;;;0.70;;
12665;SDS011;58531;59.050;17.416;2022-09-01T06:58:28;0.50;;;0.50;;
12665;SDS011;58531;59.050;17.416;2022-09-01T07:00:55;1.00;;;0.60;;
12665;SDS011;58531;59.050;17.416;2022-09-01T07:03:24;0.47;;;0.47;;
12665;SDS011;58531;59.050;17.416;2022-09-01T07:05:51;0.77;;;0.57;;
12665;SDS011;58531;59.050;17.416;2022-09-01T07:08:18;0.60;;;0.60;;
12665;SDS011;58531;59.050;17.416;2022-09-01T07:10:47;0.80;;;0.50;;
12665;SDS011;58531;59.050;17.416;2022-09-01T07:13:16;0.60;;;0.60;;
12665;SDS011;58531;59.050;17.416;2022-09-01T07:15:45;0.53;;;0.53;;
12665;SDS011;58531;59.050;17.416;2022-09-01T07:18:14;0.80;;;0.80;;
12665;SDS011;58531;59.050;17.416;2022-09-01T07:20:43;0.60;;;0.60;;
12665;SDS011;58531;59.050;17.416;2022-09-01T07:23:13;0.93;;;0.60;;
12665;SDS011;58531;59.050;17.416;2022-09-01T07:25:42;0.60;;;0.60;;
12665;SDS011;58531;59.050;17.416;2022-09-01T07:28:10;1.20;;;0.67;;
12665;SDS011;58531;59.050;17.416;2022-09-01T07:30:40;1.73;;;0.63;;
12665;SDS011;58531;59.050;17.416;2022-09-01T07:33:09;0.90;;;0.60;;
12665;SDS011;58531;59.050;17.416;2022-09-01T07:35:37;0.60;;;0.60;;
12665;SDS011;58531;59.050;17.416;2022-09-01T07:38:06;0.93;;;0.60;;
12665;SDS011;58531;59.050;17.416;2022-09-01T07:40:34;0.50;;;0.50;;
12665;SDS011;58531;59.050;17.416;2022-09-01T07:43:03;0.67;;;0.67;;
12665;SDS011;58531;59.050;17.416;2022-09-01T07:45:35;0.67;;;0.50;;
12665;SDS011;58531;59.050;17.416;2022-09-01T07:48:04;0.50;;;0.50;;
12665;SDS011;58531;59.050;17.416;2022-09-01T07:50:32;0.80;;;0.70;;
12665;SDS011;58531;59.050;17.416;2022-09-01T07:52:59;1.17;;;0.50;;
12665;SDS011;58531;59.050;17.416;2022-09-01T07:55:28;0.50;;;0.50;;
12665;SDS011;58531;59.050;17.416;2022-09-01T07:57:56;0.93;;;0.40;;
12665;SDS011;58531;59.050;17.416;2022-09-01T08:00:23;1.20;;;0.50;;
12665;SDS011;58531;59.050;17.416;2022-09-01T08:02:51;1.00;;;0.60;;
12665;SDS011;58531;59.050;17.416;2022-09-01T08:05:18;0.67;;;0.60;;
12665;SDS011;58531;59.050;17.416;2022-09-01T08:07:50;2.83;;;0.83;;
12665;SDS011;58531;59.050;17.416;2022-09-01T08:10:17;2.50;;;0.60;;
12665;SDS011;58531;59.050;17.416;2022-09-01T08:12:45;0.33;;;0.33;;
12665;SDS011;58531;59.050;17.416;2022-09-01T08:15:12;0.40;;;0.40;;
12665;SDS011;58531;59.050;17.416;2022-09-01T08:17:41;0.73;;;0.50;;
12665;SDS011;58531;59.050;17.416;2022-09-01T08:20:09;1.50;;;0.50;;
12665;SDS011;58531;59.050;17.416;2022-09-01T08:22:36;0.53;;;0.50;;
12665;SDS011;58531;59.050;17.416;2022-09-01T08:25:06;1.90;;;0.50;;
12665;SDS011;58531;59.050;17.416;2022-09-01T08:27:35;0.77;;;0.40;;
12665;SDS011;58531;59.050;17.416;2022-09-01T08:30:05;0.73;;;0.73;;
12665;SDS011;58531;59.050;17.416;2022-09-01T08:32:35;1.83;;;0.60;;
12665;SDS011;58531;59.050;17.416;2022-09-01T08:35:07;0.60;;;0.50;;
12665;SDS011;58531;59.050;17.416;2022-09-01T08:37:34;0.33;;;0.33;;
12665;SDS011;58531;59.050;17.416;2022-09-01T08:40:02;0.30;;;0.30;;
12665;SDS011;58531;59.050;17.416;2022-09-01T08:42:34;0.40;;;0.40;;
12665;SDS011;58531;59.050;17.416;2022-09-01T08:45:18;1.37;;;0.70;;
12665;SDS011;58531;59.050;17.416;2022-09-01T08:47:51;0.40;;;0.40;;
12665;SDS011;58531;59.050;17.416;2022-09-01T08:50:19;0.60;;;0.50;;
12665;SDS011;58531;59.050;17.416;2022-09-01T08:52:46;1.07;;;0.50;;
12665;SDS011;58531;59.050;17.416;2022-09-01T08:55:21;0.77;;;0.43;;
12665;SDS011;58531;59.050;17.416;2022-09-01T08:57:53;0.40;;;0.40;;
12665;SDS011;58531;59.050;17.416;2022-09-01T09:00:24;0.30;;;0.30;;
12665;SDS011;58531;59.050;17.416;2022-09-01T09:02:56;0.50;;;0.50;;
12665;SDS011;58531;59.050;17.416;2022-09-01T09:05:36;0.40;;;0.40;;
12665;SDS011;58531;59.050;17.416;2022-09-01T09:11:19;0.93;;;0.53;;
12665;SDS011;58531;59.050;17.416;2022-09-01T09:14:01;0.33;;;0.33;;
12665;SDS011;58531;59.050;17.416;2022-09-01T09:16:38;0.30;;;0.30;;
12665;SDS011;58531;59.050;17.416;2022-09-01T09:19:07;0.57;;;0.50;;
12665;SDS011;58531;59.050;17.416;2022-09-01T09:21:41;0.40;;;0.40;;
12665;SDS011;58531;59.050;17.416;2022-09-01T09:24:12;0.47;;;0.47;;
12665;SDS011;58531;59.050;17.416;2022-09-01T09:26:46;0.93;;;0.67;;
12665;SDS011;58531;59.050;17.416;2022-09-01T09:29:14;0.50;;;0.50;;
12665;SDS011;58531;59.050;17.416;2022-09-01T09:31:42;0.40;;;0.40;;
12665;SDS011;58531;59.050;17.416;2022-09-01T09:34:16;0.50;;;0.50;;
12665;SDS011;58531;59.050;17.416;2022-09-01T09:36:54;0.70;;;0.50;;
12665;SDS011;58531;59.050;17.416;2022-09-01T09:39:21;0.70;;;0.40;;
12665;SDS011;58531;59.050;17.416;2022-09-01T09:42:00;0.40;;;0.40;;
12665;SDS011;58531;59.050;17.416;2022-09-01T09:44:33;1.27;;;0.47;;
12665;SDS011;58531;59.050;17.416;2022-09-01T09:47:09;0.50;;;0.50;;
12665;SDS011;58531;59.050;17.416;2022-09-01T09:49:36;0.77;;;0.40;;
12665;SDS011;58531;59.050;17.416;2022-09-01T09:52:14;0.77;;;0.40;;
12665;SDS011;58531;59.050;17.416;2022-09-01T09:54:57;0.40;;;0.40;;
12665;SDS011;58531;59.050;17.416;2022-09-01T09:57:27;0.83;;;0.50;;
12665;SDS011;58531;59.050;17.416;2022-09-01T09:59:56;0.43;;;0.40;;
12665;SDS011;58531;59.050;17.416;2022-09-01T10:02:32;0.73;;;0.47;;
12665;SDS011;58531;59.050;17.416;2022-09-01T10:05:01;0.70;;;0.43;;
12665;SDS011;58531;59.050;17.416;2022-09-01T10:07:49;0.50;;;0.40;;
12665;SDS011;58531;59.050;17.416;2022-09-01T10:10:24;0.30;;;0.30;;
12665;SDS011;58531;59.050;17.416;2022-09-01T10:12:54;0.73;;;0.37;;
12665;SDS011;58531;59.050;17.416;2022-09-01T10:15:24;0.43;;;0.43;;
12665;SDS011;58531;59.050;17.416;2022-09-01T10:17:54;0.40;;;0.40;;
12665;SDS011;58531;59.050;17.416;2022-09-01T10:20:25;0.50;;;0.50;;
12665;SDS011;58531;59.050;17.416;2022-09-01T10:22:54;0.27;;;0.20;;
12665;SDS011;58531;59.050;17.416;2022-09-01T10:25:22;0.73;;;0.30;;
12665;SDS011;58531;59.050;17.416;2022-09-01T10:27:54;0.90;;;0.40;;
12665;SDS011;58531;59.050;17.416;2022-09-01T10:30:23;0.30;;;0.30;;
12665;SDS011;58531;59.050;17.416;2022-09-01T10:32:51;0.77;;;0.40;;
12665;SDS011;58531;59.050;17.416;2022-09-01T10:35:22;0.43;;;0.43;;
12665;SDS011;58531;59.050;17.416;2022-09-01T10:37:51;1.27;;;0.30;;
12665;SDS011;58531;59.050;17.416;2022-09-01T10:43:24;0.30;;;0.30;;
12665;SDS011;58531;59.050;17.416;2022-09-01T10:46:06;1.80;;;0.40;;
12665;SDS011;58531;59.050;17.416;2022-09-01T10:48:36;0.97;;;0.40;;
12665;SDS011;58531;59.050;17.416;2022-09-01T10:57:35;1.17;;;0.50;;
12665;SDS011;58531;59.050;17.416;2022-09-01T11:09:29;0.40;;;0.40;;
12665;SDS011;58531;59.050;17.416;2022-09-01T11:12:07;0.77;;;0.37;;
12665;SDS011;58531;59.050;17.416;2022-09-01T11:14:47;0.50;;;0.50;;
12665;SDS011;58531;59.050;17.416;2022-09-01T11:17:18;1.13;;;0.40;;
12665;SDS011;58531;59.050;17.416;2022-09-01T11:20:02;2.77;;;0.40;;
12665;SDS011;58531;59.050;17.416;2022-09-01T11:22:33;0.40;;;0.40;;
12665;SDS011;58531;59.050;17.416;2022-09-01T11:25:12;0.40;;;0.40;;
12665;SDS011;58531;59.050;17.416;2022-09-01T11:28:07;0.73;;;0.50;;
12665;SDS011;58531;59.050;17.416;2022-09-01T11:30:52;0.50;;;0.50;;
12665;SDS011;58531;59.050;17.416;2022-09-01T11:33:32;0.87;;;0.57;;
12665;SDS011;58531;59.050;17.416;2022-09-01T11:36:12;0.63;;;0.40;;
12665;SDS011;58531;59.050;17.416;2022-09-01T11:38:45;0.40;;;0.40;;
12665;SDS011;58531;59.050;17.416;2022-09-01T11:41:23;0.87;;;0.57;;
12665;SDS011;58531;59.050;17.416;2022-09-01T11:43:52;1.43;;;0.60;;
12665;SDS011;58531;59.050;17.416;2022-09-01T11:46:24;1.17;;;0.50;;
12665;SDS011;58531;59.050;17.416;2022-09-01T11:48:53;0.97;;;0.53;;
12665;SDS011;58531;59.050;17.416;2022-09-01T11:51:21;0.70;;;0.50;;
12665;SDS011;58531;59.050;17.416;2022-09-01T11:53:48;1.07;;;0.70;;
12665;SDS011;58531;59.050;17.416;2022-09-01T11:56:18;0.50;;;0.50;;
12665;SDS011;58531;59.050;17.416;2022-09-01T11:58:51;0.40;;;0.33;;
12665;SDS011;58531;59.050;17.416;2022-09-01T12:01:18;0.80;;;0.57;;
12665;SDS011;58531;59.050;17.416;2022-09-01T12:03:48;0.93;;;0.50;;
12665;SDS011;58531;59.050;17.416;2022-09-01T12:06:18;0.67;;;0.47;;
12665;SDS011;58531;59.050;17.416;2022-09-01T12:08:51;0.33;;;0.33;;
12665;SDS011;58531;59.050;17.416;2022-09-01T12:11:21;0.87;;;0.33;;
12665;SDS011;58531;59.050;17.416;2022-09-01T12:13:56;1.13;;;0.40;;
12665;SDS011;58531;59.050;17.416;2022-09-01T12:16:24;0.20;;;0.20;;
12665;SDS011;58531;59.050;17.416;2022-09-01T12:18:53;0.30;;;0.30;;
12665;SDS011;58531;59.050;17.416;2022-09-01T12:21:24;0.30;;;0.30;;
12665;SDS011;58531;59.050;17.416;2022-09-01T12:23:53;0.40;;;0.33;;
12665;SDS011;58531;59.050;17.416;2022-09-01T12:26:34;1.03;;;0.63;;
12665;SDS011;58531;59.050;17.416;2022-09-01T12:29:04;0.47;;;0.47;;
12665;SDS011;58531;59.050;17.416;2022-09-01T12:31:32;0.37;;;0.30;;
12665;SDS011;58531;59.050;17.416;2022-09-01T12:33:59;0.63;;;0.33;;
12665;SDS011;58531;59.050;17.416;2022-09-01T12:36:29;0.80;;;0.50;;
12665;SDS011;58531;59.050;17.416;2022-09-01T12:41:49;0.30;;;0.30;;
12665;SDS011;58531;59.050;17.416;2022-09-01T12:44:31;0.87;;;0.40;;
12665;SDS011;58531;59.050;17.416;2022-09-01T12:47:00;0.20;;;0.20;;
12665;SDS011;58531;59.050;17.416;2022-09-01T12:49:35;0.37;;;0.37;;
12665;SDS011;58531;59.050;17.416;2022-09-01T12:52:05;0.20;;;0.20;;
12665;SDS011;58531;59.050;17.416;2022-09-01T12:54:50;1.57;;;0.50;;
12665;SDS011;58531;59.050;17.416;2022-09-01T12:57:23;0.50;;;0.40;;
12665;SDS011;58531;59.050;17.416;2022-09-01T13:00:08;0.97;;;0.20;;
12665;SDS011;58531;59.050;17.416;2022-09-01T13:02:42;0.30;;;0.30;;
12665;SDS011;58531;59.050;17.416;2022-09-01T13:05:19;0.30;;;0.30;;
12665;SDS011;58531;59.050;17.416;2022-09-01T13:07:47;0.30;;;0.30;;
12665;SDS011;58531;59.050;17.416;2022-09-01T13:10:14;0.30;;;0.30;;
12665;SDS011;58531;59.050;17.416;2022-09-01T13:12:41;0.60;;;0.40;;
12665;SDS011;58531;59.050;17.416;2022-09-01T13:15:10;0.27;;;0.23;;
12665;SDS011;58531;59.050;17.416;2022-09-01T13:17:38;1.03;;;0.23;;
12665;SDS011;58531;59.050;17.416;2022-09-01T13:20:05;0.63;;;0.40;;
12665;SDS011;58531;59.050;17.416;2022-09-01T13:22:33;0.60;;;0.30;;
12665;SDS011;58531;59.050;17.416;2022-09-01T13:25:00;0.47;;;0.47;;
12665;SDS011;58531;59.050;17.416;2022-09-01T13:27:27;0.67;;;0.40;;
12665;SDS011;58531;59.050;17.416;2022-09-01T13:29:54;0.40;;;0.40;;
12665;SDS011;58531;59.050;17.416;2022-09-01T13:32:22;0.50;;;0.40;;
12665;SDS011;58531;59.050;17.416;2022-09-01T13:34:50;3.30;;;0.50;;
12665;SDS011;58531;59.050;17.416;2022-09-01T13:37:18;1.67;;;0.40;;
12665;SDS011;58531;59.050;17.416;2022-09-01T13:39:45;0.60;;;0.40;;
12665;SDS011;58531;59.050;17.416;2022-09-01T13:42:12;0.50;;;0.50;;
12665;SDS011;58531;59.050;17.416;2022-09-01T13:44:39;0.40;;;0.40;;
12665;SDS011;58531;59.050;17.416;2022-09-01T13:47:06;0.60;;;0.30;;
12665;SDS011;58531;59.050;17.416;2022-09-01T13:49:34;0.70;;;0.30;;
12665;SDS011;58531;59.050;17.416;2022-09-01T13:52:01;0.30;;;0.30;;
12665;SDS011;58531;59.050;17.416;2022-09-01T13:54:28;0.50;;;0.40;;
12665;SDS011;58531;59.050;17.416;2022-09-01T13:56:55;0.30;;;0.30;;
12665;SDS011;58531;59.050;17.416;2022-09-01T13:59:23;0.20;;;0.20;;
12665;SDS011;58531;59.050;17.416;2022-09-01T14:01:49;0.73;;;0.40;;
12665;SDS011;58531;59.050;17.416;2022-09-01T14:04:16;0.63;;;0.20;;
12665;SDS011;58531;59.050;17.416;2022-09-01T14:06:45;0.30;;;0.30;;
12665;SDS011;58531;59.050;17.416;2022-09-01T14:09:12;0.40;;;0.40;;
12665;SDS011;58531;59.050;17.416;2022-09-01T14:11:40;0.67;;;0.40;;
12665;SDS011;58531;59.050;17.416;2022-09-01T14:14:07;2.30;;;0.30;;
12665;SDS011;58531;59.050;17.416;2022-09-01T14:16:34;0.20;;;0.20;;
12665;SDS011;58531;59.050;17.416;2022-09-01T14:19:01;0.60;;;0.30;;
12665;SDS011;58531;59.050;17.416;2022-09-01T14:21:27;0.37;;;0.37;;
12665;SDS011;58531;59.050;17.416;2022-09-01T14:23:56;0.77;;;0.37;;
12665;SDS011;58531;59.050;17.416;2022-09-01T14:26:23;0.20;;;0.20;;
12665;SDS011;58531;59.050;17.416;2022-09-01T14:28:50;0.77;;;0.30;;
12665;SDS011;58531;59.050;17.416;2022-09-01T14:31:19;0.40;;;0.30;;
12665;SDS011;58531;59.050;17.416;2022-09-01T14:33:46;0.20;;;0.20;;
12665;SDS011;58531;59.050;17.416;2022-09-01T14:36:17;0.33;;;0.33;;
12665;SDS011;58531;59.050;17.416;2022-09-01T14:38:45;0.30;;;0.30;;
12665;SDS011;58531;59.050;17.416;2022-09-01T14:41:15;0.40;;;0.40;;
12665;SDS011;58531;59.050;17.416;2022-09-01T14:43:46;1.10;;;0.40;;
12665;SDS011;58531;59.050;17.416;2022-09-01T14:46:14;0.77;;;0.50;;
12665;SDS011;58531;59.050;17.416;2022-09-01T14:48:41;0.60;;;0.40;;
12665;SDS011;58531;59.050;17.416;2022-09-01T14:51:16;3.57;;;0.40;;
12665;SDS011;58531;59.050;17.416;2022-09-01T14:53:46;0.23;;;0.23;;
12665;SDS011;58531;59.050;17.416;2022-09-01T14:56:15;0.30;;;0.30;;
12665;SDS011;58531;59.050;17.416;2022-09-01T14:58:42;0.30;;;0.30;;
12665;SDS011;58531;59.050;17.416;2022-09-01T15:01:11;0.87;;;0.30;;
12665;SDS011;58531;59.050;17.416;2022-09-01T15:03:39;0.33;;;0.30;;
12665;SDS011;58531;59.050;17.416;2022-09-01T15:06:06;0.30;;;0.30;;
12665;SDS011;58531;59.050;17.416;2022-09-01T15:08:33;0.43;;;0.40;;
12665;SDS011;58531;59.050;17.416;2022-09-01T15:11:00;0.20;;;0.20;;
12665;SDS011;58531;59.050;17.416;2022-09-01T15:13:28;0.70;;;0.43;;